createdAt,value
2023-01-18T00:00:39.691Z,3.70
2023-01-18T00:03:20.450Z,4.40
2023-01-18T00:05:47.320Z,3.50
2023-01-18T00:08:15.971Z,3.20
2023-01-18T00:10:43.327Z,2.60
2023-01-18T00:13:11.703Z,2.80
2023-01-18T00:15:41.165Z,3.10
2023-01-18T00:18:08.210Z,4.40
2023-01-18T00:20:35.266Z,4.80
2023-01-18T00:23:02.265Z,5.80
2023-01-18T00:25:29.964Z,6.50
2023-01-18T00:27:56.991Z,9.30
2023-01-18T00:30:27.125Z,8.60
2023-01-18T00:32:56.762Z,8.60
2023-01-18T00:35:25.046Z,8.70
2023-01-18T00:37:53.240Z,8.20
2023-01-18T00:40:21.784Z,9.70
2023-01-18T00:43:08.024Z,8.40
2023-01-18T00:45:35.026Z,8.00
2023-01-18T00:48:03.113Z,7.70
2023-01-18T00:50:30.066Z,6.70
2023-01-18T00:52:58.450Z,7.60
2023-01-18T00:55:26.111Z,6.90
2023-01-18T00:57:53.297Z,7.20
2023-01-18T01:00:26.123Z,7.10
2023-01-18T01:02:53.767Z,6.50
2023-01-18T01:05:42.776Z,7.20
2023-01-18T01:08:16.318Z,6.10
2023-01-18T01:10:47.418Z,6.30
2023-01-18T01:13:35.619Z,5.10
2023-01-18T01:16:26.905Z,4.70
2023-01-18T01:19:13.896Z,5.70
2023-01-18T01:21:59.409Z,5.40
2023-01-18T01:27:13.295Z,4.20
2023-01-18T01:29:40.364Z,4.20
2023-01-18T01:32:07.364Z,4.10
2023-01-18T01:34:35.486Z,4.30
2023-01-18T01:37:03.626Z,4.10
2023-01-18T01:39:30.960Z,4.60
2023-01-18T01:41:57.985Z,4.00
2023-01-18T01:44:27.607Z,5.00
2023-01-18T01:47:10.889Z,3.70
2023-01-18T01:49:49.012Z,3.70
2023-01-18T01:52:21.564Z,3.90
2023-01-18T01:54:57.589Z,4.00
2023-01-18T01:57:31.185Z,3.70
2023-01-18T02:00:02.049Z,4.20
2023-01-18T02:02:42.136Z,4.60
2023-01-18T02:05:13.016Z,4.60
2023-01-18T02:07:40.151Z,4.20
2023-01-18T02:10:08.041Z,4.10
2023-01-18T02:12:38.288Z,4.20
2023-01-18T02:15:07.124Z,5.10
2023-01-18T02:17:46.269Z,5.80
2023-01-18T02:20:37.368Z,5.10
2023-01-18T02:23:33.452Z,5.50
2023-01-18T02:26:25.628Z,6.20
2023-01-18T02:29:04.333Z,6.40
2023-01-18T02:31:40.152Z,6.90
2023-01-18T02:34:18.843Z,7.60
2023-01-18T02:36:59.387Z,6.60
2023-01-18T02:40:02.498Z,8.20
2023-01-18T02:42:49.240Z,7.30
2023-01-18T02:45:58.894Z,9.00
2023-01-18T02:48:33.145Z,8.40
2023-01-18T02:51:00.164Z,8.90
2023-01-18T02:53:27.863Z,10.70
2023-01-18T02:56:03.161Z,8.30
2023-01-18T02:58:42.583Z,9.40
2023-01-18T03:01:26.103Z,9.00
2023-01-18T03:03:58.675Z,8.50
2023-01-18T03:06:29.658Z,9.10
2023-01-18T03:08:59.095Z,9.60
2023-01-18T03:11:38.110Z,8.50
2023-01-18T03:14:23.525Z,8.30
2023-01-18T03:16:57.862Z,8.70
2023-01-18T03:19:58.586Z,8.40
2023-01-18T03:22:47.121Z,9.00
2023-01-18T03:25:19.623Z,9.70
2023-01-18T03:28:09.619Z,9.30
2023-01-18T03:30:57.973Z,9.40
2023-01-18T03:33:48.202Z,8.80
2023-01-18T03:36:21.424Z,9.70
2023-01-18T03:38:55.570Z,9.70
2023-01-18T03:41:26.366Z,11.60
2023-01-18T03:43:57.658Z,12.90
2023-01-18T03:46:28.607Z,11.10
2023-01-18T03:48:56.372Z,9.60
2023-01-18T03:51:36.716Z,10.10
2023-01-18T03:54:22.219Z,10.30
2023-01-18T03:57:00.210Z,11.30
2023-01-18T03:59:33.423Z,10.70
2023-01-18T04:02:02.369Z,10.50
2023-01-18T04:04:29.570Z,10.60
2023-01-18T04:06:57.471Z,11.80
2023-01-18T04:09:25.880Z,12.10
2023-01-18T04:11:53.160Z,10.50
2023-01-18T04:14:20.245Z,10.90
2023-01-18T04:16:47.196Z,11.00
2023-01-18T04:19:14.109Z,11.70
2023-01-18T04:21:41.032Z,11.00
2023-01-18T04:24:08.138Z,12.30
2023-01-18T04:26:35.146Z,12.50
2023-01-18T04:29:02.888Z,13.10
2023-01-18T04:31:30.454Z,13.50
2023-01-18T04:33:57.541Z,12.60
2023-01-18T04:36:24.576Z,15.00
2023-01-18T04:38:53.680Z,15.00
2023-01-18T04:41:21.388Z,13.10
2023-01-18T04:43:48.378Z,16.40
2023-01-18T04:46:15.763Z,14.80
2023-01-18T04:48:42.819Z,14.30
2023-01-18T04:51:13.931Z,13.60
2023-01-18T04:53:42.849Z,15.10
2023-01-18T04:56:10.795Z,13.90
2023-01-18T04:58:38.252Z,14.50
2023-01-18T05:01:08.404Z,14.90
2023-01-18T05:03:37.675Z,14.40
2023-01-18T05:06:10.056Z,16.20
2023-01-18T05:08:40.522Z,18.60
2023-01-18T05:11:12.341Z,22.30
2023-01-18T05:13:40.820Z,25.30
2023-01-18T05:16:14.045Z,25.30
2023-01-18T05:18:42.795Z,28.40
2023-01-18T05:21:09.884Z,22.90
2023-01-18T05:23:38.421Z,22.00
2023-01-18T05:26:13.963Z,20.00
2023-01-18T05:28:42.011Z,21.00
2023-01-18T05:31:09.091Z,23.30
2023-01-18T05:33:36.153Z,22.40
2023-01-18T05:36:04.115Z,22.00
2023-01-18T05:38:31.121Z,23.80
2023-01-18T05:40:58.612Z,21.60
2023-01-18T05:43:27.767Z,21.10
2023-01-18T05:45:55.273Z,26.30
2023-01-18T05:48:22.417Z,24.00
2023-01-18T05:50:49.376Z,24.80
2023-01-18T05:53:18.920Z,24.60
2023-01-18T05:56:00.793Z,25.10
2023-01-18T05:58:28.650Z,25.90
2023-01-18T06:00:58.085Z,27.60
2023-01-18T06:03:25.822Z,26.10
2023-01-18T06:05:53.206Z,26.80
2023-01-18T06:08:20.797Z,25.40
2023-01-18T06:10:56.163Z,26.50
2023-01-18T06:13:24.682Z,26.80
2023-01-18T06:15:54.175Z,30.70
2023-01-18T06:18:22.707Z,41.80
2023-01-18T06:21:01.688Z,40.70
2023-01-18T06:23:31.510Z,30.20
2023-01-18T06:25:59.049Z,25.90
2023-01-18T06:28:28.043Z,26.90
2023-01-18T06:30:59.203Z,27.60
2023-01-18T06:33:27.639Z,31.50
2023-01-18T06:35:55.063Z,32.10
2023-01-18T06:38:22.161Z,31.20
2023-01-18T06:40:49.304Z,28.00
2023-01-18T06:43:16.357Z,29.00
2023-01-18T06:45:43.488Z,30.20
2023-01-18T06:48:13.419Z,29.70
2023-01-18T06:50:40.551Z,27.90
2023-01-18T06:53:07.721Z,25.30
2023-01-18T06:55:34.916Z,24.30
2023-01-18T06:58:05.311Z,25.80
2023-01-18T07:00:33.829Z,25.20
2023-01-18T07:03:10.206Z,25.40
2023-01-18T07:05:37.473Z,28.70
2023-01-18T07:08:04.706Z,26.90
2023-01-18T07:10:31.827Z,29.10
2023-01-18T07:12:59.174Z,30.10
2023-01-18T07:15:26.771Z,24.40
2023-01-18T07:17:53.933Z,26.70
2023-01-18T07:20:25.922Z,28.90
2023-01-18T07:22:53.119Z,26.60
2023-01-18T07:25:22.972Z,26.70
2023-01-18T07:27:50.792Z,24.50
2023-01-18T07:30:18.418Z,27.20
2023-01-18T07:32:51.457Z,26.10
2023-01-18T07:35:24.218Z,25.90
2023-01-18T07:37:53.462Z,29.40
2023-01-18T07:40:25.617Z,30.60
2023-01-18T07:42:58.161Z,28.50
2023-01-18T07:45:25.883Z,28.50
2023-01-18T07:47:56.121Z,24.00
2023-01-18T07:50:23.313Z,27.20
2023-01-18T07:52:53.156Z,23.40
2023-01-18T07:55:21.405Z,23.70
2023-01-18T07:57:50.028Z,23.20
2023-01-18T08:00:18.694Z,26.40
2023-01-18T08:03:04.459Z,22.00
2023-01-18T08:05:39.845Z,22.90
2023-01-18T08:08:12.619Z,21.70
2023-01-18T08:10:40.752Z,22.00
2023-01-18T08:13:10.305Z,24.90
2023-01-18T08:15:39.025Z,23.00
2023-01-18T08:18:09.112Z,23.70
2023-01-18T08:20:36.333Z,22.70
2023-01-18T08:23:04.371Z,24.40
2023-01-18T08:25:33.165Z,22.80
2023-01-18T08:28:02.890Z,23.70
2023-01-18T08:30:36.576Z,23.90
2023-01-18T08:33:05.414Z,24.10
2023-01-18T08:35:35.341Z,21.80
2023-01-18T08:38:02.647Z,21.90
2023-01-18T08:40:30.099Z,21.90
2023-01-18T08:43:02.205Z,20.90
2023-01-18T08:45:30.334Z,21.70
2023-01-18T08:48:02.065Z,26.80
2023-01-18T08:50:31.642Z,26.60
2023-01-18T08:53:02.543Z,26.90
2023-01-18T08:55:31.169Z,30.60
2023-01-18T08:57:58.508Z,45.10
2023-01-18T09:00:28.104Z,27.90
2023-01-18T09:02:56.421Z,24.00
2023-01-18T09:05:27.511Z,25.90
2023-01-18T09:07:56.043Z,26.50
2023-01-18T09:10:26.208Z,24.40
2023-01-18T09:12:55.182Z,28.00
2023-01-18T09:15:22.274Z,26.60
2023-01-18T09:17:49.472Z,24.50
2023-01-18T09:20:19.631Z,24.40
2023-01-18T09:22:47.265Z,23.60
2023-01-18T09:25:17.531Z,23.50
2023-01-18T09:27:46.127Z,23.10
2023-01-18T09:30:16.294Z,24.60
2023-01-18T09:32:43.513Z,21.50
2023-01-18T09:35:10.533Z,18.60
2023-01-18T09:37:40.366Z,20.40
2023-01-18T09:40:33.797Z,18.20
2023-01-18T09:43:01.205Z,25.00
2023-01-18T09:45:32.674Z,24.60
2023-01-18T09:48:07.048Z,26.20
2023-01-18T09:50:42.229Z,28.70
2023-01-18T09:55:53.643Z,25.90
2023-01-18T09:58:35.182Z,28.90
2023-01-18T10:01:13.181Z,30.50
2023-01-18T10:03:51.943Z,28.20
2023-01-18T10:06:30.743Z,35.20
2023-01-18T10:09:05.438Z,31.40
2023-01-18T10:12:06.616Z,32.70
2023-01-18T10:14:45.885Z,33.00
2023-01-18T10:17:22.512Z,36.00
2023-01-18T10:19:50.120Z,30.20
2023-01-18T10:22:20.574Z,29.30
2023-01-18T10:25:04.323Z,28.60
2023-01-18T10:27:45.119Z,24.40
2023-01-18T10:30:46.949Z,25.00
2023-01-18T10:33:20.918Z,32.40
2023-01-18T10:36:02.616Z,30.50
2023-01-18T10:38:31.319Z,23.00
2023-01-18T10:41:02.831Z,22.50
2023-01-18T10:43:36.751Z,21.80
2023-01-18T10:46:16.064Z,22.80
2023-01-18T10:48:49.891Z,23.90
2023-01-18T10:51:29.898Z,26.40
2023-01-18T10:53:59.232Z,27.00
2023-01-18T10:56:27.919Z,25.90
2023-01-18T10:59:00.443Z,25.20
2023-01-18T11:01:34.053Z,21.60
2023-01-18T11:04:19.992Z,19.50
2023-01-18T11:06:55.967Z,17.70
2023-01-18T11:09:55.056Z,17.30
2023-01-18T11:12:37.552Z,17.20
2023-01-18T11:15:15.601Z,16.10
2023-01-18T11:18:02.553Z,16.90
2023-01-18T11:23:25.924Z,15.60
2023-01-18T11:26:02.479Z,21.10
2023-01-18T11:28:52.199Z,18.70
2023-01-18T11:31:22.549Z,33.20
2023-01-18T11:33:57.512Z,26.10
2023-01-18T11:36:41.546Z,15.00
2023-01-18T11:39:26.299Z,13.40
2023-01-18T11:42:27.700Z,12.60
2023-01-18T11:44:58.031Z,15.60
2023-01-18T11:47:51.107Z,14.40
2023-01-18T11:53:24.497Z,14.30
2023-01-18T11:56:06.140Z,15.70
2023-01-18T11:58:35.983Z,14.70
2023-01-18T12:01:37.351Z,14.80
2023-01-18T12:04:25.789Z,13.60
2023-01-18T12:06:58.180Z,14.80
2023-01-18T12:09:46.547Z,14.70
2023-01-18T12:12:20.067Z,14.10
2023-01-18T12:15:07.357Z,15.70
2023-01-18T12:18:15.570Z,18.90
2023-01-18T12:20:58.786Z,50.80
2023-01-18T12:23:32.083Z,22.40
2023-01-18T12:26:44.640Z,18.10
2023-01-18T12:29:44.457Z,17.20
2023-01-18T12:32:40.699Z,17.10
2023-01-18T12:35:34.454Z,16.70
2023-01-18T12:38:22.550Z,18.00
2023-01-18T12:41:06.871Z,17.70
2023-01-18T12:43:37.987Z,18.90
2023-01-18T12:46:26.455Z,18.40
2023-01-18T12:49:20.979Z,19.10
2023-01-18T12:52:13.035Z,18.70
2023-01-18T12:55:00.620Z,19.20
2023-01-18T12:57:29.271Z,19.20
2023-01-18T13:00:08.568Z,20.70
2023-01-18T13:02:43.946Z,21.00
2023-01-18T13:05:34.715Z,18.80
2023-01-18T13:08:14.283Z,21.80
2023-01-18T13:10:42.418Z,21.10
2023-01-18T13:13:27.468Z,23.30
2023-01-18T13:16:12.942Z,24.60
2023-01-18T13:18:43.769Z,24.50
2023-01-18T13:21:32.677Z,24.30
2023-01-18T13:24:41.958Z,23.30
2023-01-18T13:27:14.996Z,25.30
2023-01-18T13:29:43.874Z,22.40
2023-01-18T13:32:43.230Z,22.90
2023-01-18T13:35:20.592Z,25.50
2023-01-18T13:37:55.637Z,29.70
2023-01-18T13:40:51.357Z,26.60
2023-01-18T13:43:31.507Z,26.20
2023-01-18T13:46:07.470Z,27.70
2023-01-18T13:48:53.758Z,28.20
2023-01-18T13:51:41.385Z,29.00
2023-01-18T13:54:17.043Z,30.40
2023-01-18T13:57:05.163Z,29.10
2023-01-18T13:59:35.698Z,27.80
2023-01-18T14:02:22.058Z,30.70
2023-01-18T14:05:03.068Z,30.90
2023-01-18T14:07:43.607Z,30.80
2023-01-18T14:10:33.661Z,34.20
2023-01-18T14:13:07.032Z,32.60
2023-01-18T14:15:46.922Z,32.10
2023-01-18T14:18:24.543Z,31.80
2023-01-18T14:20:59.996Z,30.80
2023-01-18T14:23:43.294Z,31.80
2023-01-18T14:26:19.011Z,35.10
2023-01-18T14:29:11.714Z,31.80
2023-01-18T14:31:50.824Z,28.40
2023-01-18T14:34:30.164Z,35.30
2023-01-18T14:36:59.138Z,32.80
2023-01-18T14:39:28.275Z,37.70
2023-01-18T14:42:05.611Z,36.50
2023-01-18T14:44:56.826Z,38.50
2023-01-18T14:47:32.426Z,36.50
2023-01-18T14:50:03.666Z,47.40
2023-01-18T14:52:36.352Z,48.20
2023-01-18T14:55:05.233Z,45.90
2023-01-18T14:57:32.161Z,54.00
2023-01-18T15:00:15.659Z,54.80
2023-01-18T15:02:43.669Z,35.20
2023-01-18T15:05:17.207Z,32.80
2023-01-18T15:07:55.427Z,34.40
2023-01-18T15:10:24.153Z,35.00
2023-01-18T15:12:57.484Z,48.30
2023-01-18T15:15:29.855Z,72.70
2023-01-18T15:18:05.373Z,78.70
2023-01-18T15:20:33.519Z,61.30
2023-01-18T15:23:00.795Z,57.00
2023-01-18T15:25:32.845Z,58.10
2023-01-18T15:28:14.760Z,48.60
2023-01-18T15:30:54.138Z,53.50
2023-01-18T15:33:24.856Z,67.20
2023-01-18T15:36:00.503Z,75.80
2023-01-18T15:38:34.365Z,96.00
2023-01-18T15:41:05.927Z,63.70
2023-01-18T15:43:51.224Z,40.20
2023-01-18T15:46:18.561Z,36.00
2023-01-18T15:49:04.742Z,38.90
2023-01-18T15:51:50.508Z,36.10
2023-01-18T15:54:20.432Z,36.70
2023-01-18T15:56:48.331Z,33.60
2023-01-18T15:59:23.334Z,32.60
2023-01-18T16:02:18.461Z,32.30
2023-01-18T16:04:45.943Z,27.50
2023-01-18T16:07:37.739Z,28.70
2023-01-18T16:10:30.383Z,32.60
2023-01-18T16:13:30.177Z,31.10
2023-01-18T16:16:18.733Z,28.70
2023-01-18T16:19:03.346Z,30.60
2023-01-18T16:21:41.340Z,25.00
2023-01-18T16:24:30.028Z,23.60
2023-01-18T16:27:06.580Z,22.20
2023-01-18T16:29:47.169Z,23.00
2023-01-18T16:32:28.969Z,19.50
2023-01-18T16:35:03.134Z,20.30
2023-01-18T16:37:30.071Z,21.80
2023-01-18T16:39:57.178Z,18.90
2023-01-18T16:42:36.910Z,18.30
2023-01-18T16:45:12.630Z,19.10
2023-01-18T16:47:39.619Z,18.10
2023-01-18T16:50:15.954Z,19.70
2023-01-18T16:52:43.497Z,22.00
2023-01-18T16:55:17.551Z,23.10
2023-01-18T16:57:45.506Z,21.20
2023-01-18T17:00:17.361Z,22.80
2023-01-18T17:02:44.753Z,24.40
2023-01-18T17:05:13.522Z,27.90
2023-01-18T17:07:40.564Z,28.10
2023-01-18T17:10:30.620Z,24.30
2023-01-18T17:12:59.607Z,21.80
2023-01-18T17:15:30.137Z,19.30
2023-01-18T17:17:57.305Z,17.60
2023-01-18T17:20:26.591Z,18.90
2023-01-18T17:22:55.093Z,25.90
2023-01-18T17:25:23.561Z,27.10
2023-01-18T17:27:50.559Z,31.80
2023-01-18T17:30:20.729Z,30.80
2023-01-18T17:32:48.362Z,30.00
2023-01-18T17:35:22.180Z,29.60
2023-01-18T17:37:54.455Z,29.20
2023-01-18T17:40:39.370Z,34.50
2023-01-18T17:43:32.044Z,32.80
2023-01-18T17:46:05.060Z,34.20
2023-01-18T17:48:32.297Z,28.90
2023-01-18T17:50:59.256Z,30.30
2023-01-18T17:53:26.814Z,41.90
2023-01-18T17:55:53.687Z,44.90
2023-01-18T17:58:20.586Z,52.80
2023-01-18T18:00:47.597Z,50.60
2023-01-18T18:03:14.777Z,42.90
2023-01-18T18:05:41.976Z,42.10
2023-01-18T18:08:09.020Z,38.00
2023-01-18T18:10:35.929Z,40.30
2023-01-18T18:13:03.449Z,42.80
2023-01-18T18:15:30.750Z,46.00
2023-01-18T18:17:58.105Z,47.40
2023-01-18T18:20:25.061Z,48.30
2023-01-18T18:22:52.090Z,45.90
2023-01-18T18:25:19.087Z,52.80
2023-01-18T18:27:47.269Z,50.10
2023-01-18T18:30:17.363Z,48.80
2023-01-18T18:32:46.330Z,55.30
2023-01-18T18:35:25.351Z,46.00
2023-01-18T18:37:55.099Z,55.90
2023-01-18T18:40:24.125Z,52.10
2023-01-18T18:43:01.287Z,50.70
2023-01-18T18:45:32.943Z,49.20
2023-01-18T18:48:00.596Z,47.90
2023-01-18T18:50:28.593Z,45.10
2023-01-18T18:52:57.831Z,41.10
2023-01-18T18:55:27.208Z,35.80
2023-01-18T18:57:54.179Z,39.40
2023-01-18T19:00:21.459Z,40.80
2023-01-18T19:02:49.825Z,68.00
2023-01-18T19:05:16.915Z,80.00
2023-01-18T19:07:46.677Z,64.40
2023-01-18T19:10:14.408Z,55.90
2023-01-18T19:12:41.323Z,48.30
2023-01-18T19:15:09.095Z,39.30
2023-01-18T19:17:37.273Z,32.80
2023-01-18T19:20:05.182Z,36.10
2023-01-18T19:22:32.290Z,40.60
2023-01-18T19:24:59.209Z,41.80
2023-01-18T19:27:26.743Z,43.80
2023-01-18T19:29:56.638Z,40.20
2023-01-18T19:32:24.143Z,42.20
2023-01-18T19:35:19.774Z,41.40
2023-01-18T19:37:47.957Z,79.60
2023-01-18T19:40:15.998Z,57.80
2023-01-18T19:42:44.071Z,42.10
2023-01-18T19:45:19.724Z,39.00
2023-01-18T19:48:01.583Z,56.50
2023-01-18T19:50:30.080Z,56.50
2023-01-18T19:52:58.109Z,61.70
2023-01-18T19:55:25.503Z,37.70
2023-01-18T19:57:55.284Z,33.90
2023-01-18T20:00:22.577Z,29.70
2023-01-18T20:02:50.998Z,33.00
2023-01-18T20:05:18.568Z,35.70
2023-01-18T20:07:46.000Z,36.60
2023-01-18T20:10:13.135Z,35.60
2023-01-18T20:12:43.074Z,35.40
2023-01-18T20:15:10.362Z,37.40
2023-01-18T20:17:38.193Z,38.20
2023-01-18T20:20:05.712Z,42.10
2023-01-18T20:22:32.618Z,55.30
2023-01-18T20:24:59.579Z,56.40
2023-01-18T20:27:29.925Z,57.60
2023-01-18T20:29:57.695Z,56.40
2023-01-18T20:32:24.813Z,59.80
2023-01-18T20:34:51.880Z,62.90
2023-01-18T20:37:22.311Z,51.40
2023-01-18T20:39:49.890Z,47.20
2023-01-18T20:42:17.616Z,47.30
2023-01-18T20:44:48.779Z,48.30
2023-01-18T20:47:16.003Z,69.00
2023-01-18T20:49:44.531Z,61.70
2023-01-18T20:52:11.476Z,58.30
2023-01-18T20:54:38.446Z,57.50
2023-01-18T20:57:06.034Z,61.70
2023-01-18T20:59:34.470Z,58.20
2023-01-18T21:02:02.543Z,74.10
2023-01-18T21:04:29.739Z,81.20
2023-01-18T21:06:56.796Z,69.50
2023-01-18T21:09:25.213Z,62.00
2023-01-18T21:11:52.262Z,70.70
2023-01-18T21:14:19.236Z,64.60
2023-01-18T21:16:46.628Z,64.00
2023-01-18T21:19:13.793Z,74.30
2023-01-18T21:21:40.870Z,90.60
2023-01-18T21:24:07.921Z,103.90
2023-01-18T21:26:35.955Z,100.00
2023-01-18T21:29:05.571Z,102.10
2023-01-18T21:31:32.632Z,90.80
2023-01-18T21:34:04.087Z,80.00
2023-01-18T21:36:31.046Z,62.90
2023-01-18T21:38:57.972Z,78.50
2023-01-18T21:41:43.712Z,75.20
2023-01-18T21:44:30.027Z,59.00
2023-01-18T21:46:58.527Z,68.10
2023-01-18T21:50:11.296Z,62.60
2023-01-18T21:52:49.700Z,53.00
2023-01-18T21:55:17.327Z,58.80
2023-01-18T21:57:44.696Z,49.70
2023-01-18T22:00:12.129Z,47.10
2023-01-18T22:02:39.172Z,53.60
2023-01-18T22:05:08.131Z,49.10
2023-01-18T22:07:35.182Z,48.60
2023-01-18T22:10:07.329Z,45.60
2023-01-18T22:12:36.218Z,39.20
2023-01-18T22:15:04.669Z,34.80
2023-01-18T22:17:31.661Z,31.50
2023-01-18T22:19:59.353Z,32.00
2023-01-18T22:22:26.485Z,32.10
2023-01-18T22:24:53.538Z,33.20
2023-01-18T22:27:20.582Z,34.30
2023-01-18T22:29:47.518Z,35.30
2023-01-18T22:32:14.509Z,35.30
2023-01-18T22:34:41.496Z,37.00
2023-01-18T22:37:08.495Z,40.20
2023-01-18T22:39:35.340Z,40.50
2023-01-18T22:42:02.369Z,37.10
2023-01-18T22:44:29.384Z,37.40
2023-01-18T22:46:56.403Z,37.90
2023-01-18T22:49:23.410Z,37.70
2023-01-18T22:51:50.318Z,32.00
2023-01-18T22:54:21.924Z,31.80
2023-01-18T22:56:49.047Z,32.30
2023-01-18T22:59:16.102Z,32.90
2023-01-18T23:01:43.055Z,35.20
2023-01-18T23:04:10.075Z,32.70
2023-01-18T23:06:48.383Z,34.80
2023-01-18T23:09:17.018Z,36.30
2023-01-18T23:11:44.824Z,36.10
2023-01-18T23:14:30.536Z,33.00
2023-01-18T23:17:16.507Z,30.40
2023-01-18T23:19:43.523Z,27.80
2023-01-18T23:22:10.661Z,26.90
2023-01-18T23:24:38.942Z,34.70
2023-01-18T23:27:09.230Z,32.90
2023-01-18T23:29:36.649Z,32.60
2023-01-18T23:32:04.050Z,32.40
2023-01-18T23:34:30.937Z,30.70
2023-01-18T23:36:57.988Z,30.40
2023-01-18T23:39:43.347Z,32.50
2023-01-18T23:42:29.276Z,39.20
2023-01-18T23:45:15.094Z,38.90
2023-01-18T23:48:01.240Z,38.30
2023-01-18T23:50:47.059Z,36.70
2023-01-18T23:53:32.955Z,39.30
2023-01-18T23:55:59.864Z,40.50
2023-01-18T23:58:27.367Z,40.40
